Time;durP1;ratioP1;P1;durP2;ratioP2;P2;SDS_P1;SDS_P2;PMS_P1;PMS_P2;Temp;Humidity;BMP_temperature;BMP_pressure;BME280_temperature;BME280_humidity;BME280_pressure;Samples;Min_cycle;Max_cycle;Signal;HPM_P1;HPM_P2
2023/01/23 00:01:43;;;;;;;8.50;5.53;;;0.10;99.90;;;;;;5032573;28;20316;-84
2023/01/23 00:04:11;;;;;;;8.50;5.40;;;0.10;99.90;;;;;;5031305;28;20267;-84
2023/01/23 00:06:37;;;;;;;7.80;5.57;;;0.10;99.90;;;;;;5031524;28;20187;-85
2023/01/23 00:09:03;;;;;;;8.23;5.47;;;0.10;99.90;;;;;;5031213;28;20553;-84
2023/01/23 00:11:29;;;;;;;8.17;5.20;;;0.10;99.90;;;;;;5031149;28;20207;-83
2023/01/23 00:13:56;;;;;;;7.77;4.83;;;0.10;99.90;;;;;;5031053;28;20224;-84
2023/01/23 00:16:23;;;;;;;8.37;5.37;;;0.20;99.90;;;;;;5031326;28;20240;-84
2023/01/23 00:18:50;;;;;;;7.60;5.20;;;0.20;99.90;;;;;;5032332;28;20194;-84
2023/01/23 00:21:19;;;;;;;7.33;5.10;;;0.10;99.90;;;;;;5030963;28;20209;-84
2023/01/23 00:23:47;;;;;;;7.20;4.93;;;0.10;99.90;;;;;;5031156;28;20198;-84
2023/01/23 00:26:16;;;;;;;6.97;4.77;;;0.10;99.90;;;;;;5031027;28;20205;-84
2023/01/23 00:28:43;;;;;;;7.73;4.87;;;0.20;99.90;;;;;;5030967;28;20260;-84
2023/01/23 00:31:17;;;;;;;7.67;4.83;;;0.10;99.90;;;;;;5045221;28;20640;-84
2023/01/23 00:33:44;;;;;;;6.27;4.60;;;0.10;99.90;;;;;;5037901;28;20213;-84
2023/01/23 00:36:11;;;;;;;7.87;5.27;;;0.10;99.90;;;;;;5032283;28;20209;-85
2023/01/23 00:38:37;;;;;;;7.20;4.83;;;0.00;99.90;;;;;;5030866;28;20204;-84
2023/01/23 00:41:03;;;;;;;7.20;4.80;;;0.00;99.90;;;;;;5031922;28;20740;-84
2023/01/23 00:43:29;;;;;;;6.77;4.30;;;0.00;99.90;;;;;;5030658;28;20206;-84
2023/01/23 00:45:55;;;;;;;6.87;4.53;;;0.00;99.90;;;;;;5032121;28;20253;-84
2023/01/23 00:48:21;;;;;;;7.30;5.00;;;0.00;99.90;;;;;;5034471;28;20265;-84
2023/01/23 00:50:47;;;;;;;7.20;4.70;;;0.00;99.90;;;;;;5034647;28;20185;-84
2023/01/23 00:53:13;;;;;;;7.17;5.00;;;0.10;99.90;;;;;;5036002;28;20611;-84
2023/01/23 00:55:39;;;;;;;6.93;4.73;;;0.00;99.90;;;;;;5035072;28;20643;-86
2023/01/23 00:58:05;;;;;;;6.77;4.53;;;0.00;99.90;;;;;;5034584;28;20185;-85
2023/01/23 01:00:30;;;;;;;8.00;5.10;;;-0.10;99.90;;;;;;5036141;28;20266;-83
2023/01/23 01:02:56;;;;;;;8.13;4.53;;;-0.10;99.90;;;;;;5034744;28;20201;-85
2023/01/23 01:05:21;;;;;;;7.10;4.80;;;-0.20;99.90;;;;;;5034720;28;20255;-84
2023/01/23 01:07:47;;;;;;;6.90;4.70;;;-0.20;99.90;;;;;;5035705;28;20644;-84
2023/01/23 01:10:13;;;;;;;7.83;4.87;;;-0.20;99.90;;;;;;5034418;28;20173;-84
2023/01/23 01:12:39;;;;;;;7.50;5.03;;;-0.20;99.90;;;;;;5034482;28;20213;-84
2023/01/23 01:15:06;;;;;;;7.93;5.40;;;-0.20;99.90;;;;;;5034538;28;20235;-84
2023/01/23 01:17:32;;;;;;;6.97;4.43;;;-0.30;99.90;;;;;;5034592;28;20192;-83
2023/01/23 01:19:57;;;;;;;7.50;5.07;;;-0.30;99.90;;;;;;5034113;28;20684;-84
2023/01/23 01:22:23;;;;;;;7.73;4.93;;;-0.20;99.90;;;;;;5034300;28;20665;-84
2023/01/23 01:24:49;;;;;;;8.37;5.30;;;-0.20;99.90;;;;;;5034427;28;20184;-84
2023/01/23 01:27:14;;;;;;;5.57;4.37;;;-0.30;99.90;;;;;;5034204;28;20178;-84
2023/01/23 01:29:40;;;;;;;7.93;4.80;;;-0.20;99.90;;;;;;5033953;28;20189;-84
2023/01/23 01:32:05;;;;;;;6.90;4.70;;;-0.20;99.90;;;;;;5034491;28;20208;-84
2023/01/23 01:34:31;;;;;;;7.20;4.63;;;-0.20;99.90;;;;;;5035409;28;20258;-84
2023/01/23 01:36:56;;;;;;;7.83;5.00;;;-0.30;99.90;;;;;;5034338;28;20212;-85
2023/01/23 01:39:22;;;;;;;7.40;4.67;;;-0.30;99.90;;;;;;5035239;28;20201;-84
2023/01/23 01:41:48;;;;;;;7.40;4.87;;;-0.30;99.90;;;;;;5033805;28;20207;-84
2023/01/23 01:44:22;;;;;;;7.53;4.60;;;-0.30;99.90;;;;;;5033646;28;20206;-84
2023/01/23 01:46:48;;;;;;;7.87;4.77;;;-0.30;99.90;;;;;;5033911;28;20176;-84
2023/01/23 01:49:31;;;;;;;6.47;4.40;;;-0.20;99.90;;;;;;5033894;28;20229;-84
2023/01/23 01:52:11;;;;;;;6.77;4.53;;;-0.30;99.90;;;;;;5033626;28;20185;-84
2023/01/23 01:55:00;;;;;;;8.30;4.97;;;-0.30;99.90;;;;;;5033489;28;20225;-84
2023/01/23 01:57:34;;;;;;;6.17;4.40;;;-0.40;99.90;;;;;;5033669;28;20271;-84
2023/01/23 02:00:14;;;;;;;7.10;4.33;;;-0.40;99.90;;;;;;5033563;28;20572;-84
2023/01/23 02:02:51;;;;;;;6.30;3.90;;;-0.40;99.90;;;;;;5033470;28;20177;-85
2023/01/23 02:05:21;;;;;;;6.23;4.00;;;-0.40;99.90;;;;;;5033460;28;20179;-84
2023/01/23 02:07:56;;;;;;;4.67;3.70;;;-0.40;99.90;;;;;;5033647;28;20187;-84
2023/01/23 02:10:22;;;;;;;6.07;4.03;;;-0.30;99.90;;;;;;5033350;28;20536;-84
2023/01/23 02:12:49;;;;;;;5.73;3.90;;;-0.20;99.90;;;;;;5033214;28;20201;-84
2023/01/23 02:15:16;;;;;;;5.23;3.93;;;-0.20;99.90;;;;;;5034552;28;20189;-84
2023/01/23 02:17:43;;;;;;;5.77;4.07;;;-0.20;99.90;;;;;;5033286;28;20182;-84
2023/01/23 02:20:23;;;;;;;5.97;3.90;;;-0.20;99.90;;;;;;5032974;28;20208;-84
2023/01/23 02:23:09;;;;;;;4.93;3.73;;;-0.10;99.90;;;;;;5033225;28;20283;-84
2023/01/23 02:25:43;;;;;;;6.63;3.80;;;-0.10;99.90;;;;;;5034259;28;20177;-84
2023/01/23 02:28:14;;;;;;;5.40;3.60;;;-0.10;99.90;;;;;;5033189;28;20205;-84
2023/01/23 02:30:41;;;;;;;5.50;3.67;;;-0.10;99.90;;;;;;5033010;28;20640;-84
2023/01/23 02:33:21;;;;;;;6.00;3.73;;;-0.10;99.90;;;;;;5110468;22;20674;-80
2023/01/23 02:35:47;;;;;;;5.27;3.80;;;0.00;99.90;;;;;;5053380;28;20185;-81
2023/01/23 02:38:13;;;;;;;5.43;3.70;;;0.00;99.90;;;;;;5039060;28;20546;-80
2023/01/23 02:40:41;;;;;;;5.30;3.77;;;0.00;99.90;;;;;;5038557;28;20204;-81
2023/01/23 02:43:11;;;;;;;4.67;3.53;;;0.10;99.90;;;;;;5038268;28;20201;-80
2023/01/23 02:45:37;;;;;;;4.53;3.53;;;0.10;99.90;;;;;;5039039;28;20170;-81
2023/01/23 02:48:04;;;;;;;5.47;3.83;;;0.10;99.90;;;;;;5037472;28;20410;-80
2023/01/23 02:50:30;;;;;;;4.43;3.40;;;0.20;99.90;;;;;;5036920;28;20668;-80
2023/01/23 02:52:57;;;;;;;6.30;3.97;;;0.30;99.90;;;;;;5027841;28;20189;-80
2023/01/23 02:55:25;;;;;;;4.87;3.53;;;0.20;99.90;;;;;;5035548;28;20179;-80
2023/01/23 02:57:51;;;;;;;5.07;3.67;;;0.10;99.90;;;;;;5037295;28;20178;-80
2023/01/23 03:00:21;;;;;;;5.30;3.80;;;0.20;99.90;;;;;;5038795;28;20213;-81
2023/01/23 03:02:48;;;;;;;5.63;3.80;;;0.20;99.90;;;;;;5038744;28;20610;-81
2023/01/23 03:05:13;;;;;;;5.20;3.83;;;0.20;99.90;;;;;;5039092;28;20277;-80
2023/01/23 03:07:39;;;;;;;4.73;3.50;;;0.30;99.90;;;;;;5031317;28;20194;-80
2023/01/23 03:10:06;;;;;;;4.93;3.63;;;0.30;99.90;;;;;;5039179;28;20178;-80
2023/01/23 03:12:32;;;;;;;4.93;3.87;;;0.30;99.90;;;;;;5039618;28;20269;-81
2023/01/23 03:14:58;;;;;;;4.30;3.53;;;0.30;99.90;;;;;;5039285;28;20225;-80
2023/01/23 03:17:24;;;;;;;4.67;3.80;;;0.30;99.90;;;;;;5038643;28;20179;-81
2023/01/23 03:19:50;;;;;;;5.07;3.70;;;0.30;99.90;;;;;;5039719;28;20205;-80
2023/01/23 03:22:16;;;;;;;4.40;3.27;;;0.30;99.90;;;;;;5039833;28;20549;-81
2023/01/23 03:24:41;;;;;;;5.27;3.60;;;0.30;99.90;;;;;;5039309;28;20197;-81
2023/01/23 03:27:07;;;;;;;6.27;3.90;;;0.30;99.90;;;;;;5036390;28;20177;-82
2023/01/23 03:32:17;;;;;;;4.77;3.57;;;0.40;99.90;;;;;;5040340;28;20185;-81
2023/01/23 03:34:42;;;;;;;5.17;4.03;;;0.40;99.90;;;;;;5033158;28;20218;-81
2023/01/23 03:37:10;;;;;;;4.37;3.63;;;0.40;99.90;;;;;;5038679;28;20232;-80
2023/01/23 03:42:20;;;;;;;5.43;3.80;;;0.40;99.90;;;;;;5040808;28;20235;-81
2023/01/23 03:44:46;;;;;;;4.67;3.60;;;0.50;99.90;;;;;;5037444;28;20198;-80
2023/01/23 03:47:11;;;;;;;5.00;3.63;;;0.50;99.90;;;;;;5040301;28;20182;-80
2023/01/23 03:49:37;;;;;;;4.80;3.57;;;0.50;99.90;;;;;;5038273;28;20639;-80
2023/01/23 03:52:03;;;;;;;5.97;3.90;;;0.40;99.90;;;;;;5038320;28;20592;-81
2023/01/23 03:54:28;;;;;;;4.30;3.73;;;0.50;99.90;;;;;;5037937;28;20202;-81
2023/01/23 03:56:54;;;;;;;5.27;3.60;;;0.40;99.90;;;;;;5040744;28;20174;-82
2023/01/23 03:59:20;;;;;;;5.20;3.47;;;0.40;99.90;;;;;;5040469;28;20217;-81
2023/01/23 04:01:46;;;;;;;4.93;3.83;;;0.40;99.90;;;;;;5040900;28;20205;-81
2023/01/23 04:04:12;;;;;;;5.70;3.57;;;0.30;99.90;;;;;;5040657;28;20200;-81
2023/01/23 04:06:38;;;;;;;5.13;3.67;;;0.30;99.90;;;;;;5037466;28;20197;-81
2023/01/23 04:09:04;;;;;;;5.00;3.73;;;0.40;99.90;;;;;;5036528;28;20179;-81
2023/01/23 04:11:29;;;;;;;4.63;3.47;;;0.40;99.90;;;;;;5033894;28;20209;-81
2023/01/23 04:13:55;;;;;;;5.07;3.73;;;0.30;99.90;;;;;;5026264;28;20252;-81
2023/01/23 04:16:21;;;;;;;5.50;4.00;;;0.30;99.90;;;;;;5021639;28;20190;-81
2023/01/23 04:18:48;;;;;;;4.53;3.70;;;0.30;99.90;;;;;;5023766;28;20664;-82
2023/01/23 04:21:13;;;;;;;5.00;3.83;;;0.30;99.90;;;;;;5024076;28;20206;-81
2023/01/23 04:23:39;;;;;;;4.43;3.73;;;0.30;99.90;;;;;;5033963;28;20217;-81
2023/01/23 04:26:05;;;;;;;4.40;3.60;;;0.30;99.90;;;;;;5047212;28;20209;-80
2023/01/23 04:28:30;;;;;;;5.53;3.67;;;0.30;99.90;;;;;;5046439;28;20173;-81
2023/01/23 04:30:56;;;;;;;6.07;4.67;;;0.30;99.90;;;;;;5041054;28;20185;-81
2023/01/23 04:33:21;;;;;;;5.10;3.97;;;0.20;99.90;;;;;;5040771;28;20223;-81
2023/01/23 04:35:52;;;;;;;5.73;4.00;;;0.20;99.90;;;;;;5039783;28;20177;-80
2023/01/23 04:38:18;;;;;;;5.80;4.40;;;0.20;99.90;;;;;;5040013;28;20546;-81
2023/01/23 04:40:45;;;;;;;5.53;4.17;;;0.10;99.90;;;;;;5039252;28;20228;-81
2023/01/23 04:43:11;;;;;;;6.00;4.30;;;0.10;99.90;;;;;;5041408;28;20169;-81
2023/01/23 04:45:36;;;;;;;6.57;4.53;;;0.10;99.90;;;;;;5040396;28;20636;-82
2023/01/23 04:48:02;;;;;;;6.30;4.53;;;0.10;99.90;;;;;;5042031;28;20204;-82
2023/01/23 04:50:28;;;;;;;6.60;4.60;;;0.00;99.90;;;;;;5042095;28;20181;-81
2023/01/23 04:52:54;;;;;;;6.10;4.73;;;0.10;99.90;;;;;;5042281;28;20184;-79
2023/01/23 04:55:19;;;;;;;7.77;4.67;;;0.00;99.90;;;;;;5042368;28;20206;-81
2023/01/23 04:57:45;;;;;;;5.60;4.10;;;0.00;99.90;;;;;;5042528;28;20560;-81
2023/01/23 05:00:12;;;;;;;8.07;5.10;;;0.00;99.90;;;;;;5041059;28;20205;-81
2023/01/23 05:02:37;;;;;;;6.90;5.00;;;0.00;99.90;;;;;;5041126;28;20230;-81
2023/01/23 05:05:03;;;;;;;7.73;5.43;;;0.00;99.90;;;;;;5043251;28;20213;-81
2023/01/23 05:07:29;;;;;;;7.47;4.87;;;0.00;99.90;;;;;;5042924;28;20176;-83
2023/01/23 05:09:54;;;;;;;7.27;5.03;;;0.00;99.90;;;;;;5041766;28;20176;-81
2023/01/23 05:12:20;;;;;;;7.00;4.70;;;0.00;99.90;;;;;;5043830;28;20180;-81
2023/01/23 05:14:45;;;;;;;7.83;5.40;;;0.00;99.90;;;;;;5042288;28;20206;-81
2023/01/23 05:17:11;;;;;;;7.10;5.53;;;0.00;99.90;;;;;;5042580;28;20222;-81
2023/01/23 05:19:36;;;;;;;7.17;5.00;;;0.00;99.90;;;;;;5042604;28;20291;-78
2023/01/23 05:22:02;;;;;;;7.57;5.47;;;0.10;99.90;;;;;;5043080;28;20170;-81
2023/01/23 05:24:27;;;;;;;7.20;5.10;;;0.10;99.90;;;;;;5044873;28;20197;-82
2023/01/23 05:26:53;;;;;;;7.63;5.13;;;0.10;99.90;;;;;;5044218;28;20173;-81
2023/01/23 05:29:19;;;;;;;7.30;5.43;;;0.10;99.90;;;;;;5048318;28;20181;-80
2023/01/23 05:31:44;;;;;;;8.50;5.67;;;0.10;99.90;;;;;;5048750;28;20241;-81
2023/01/23 05:34:10;;;;;;;9.27;6.23;;;0.10;99.90;;;;;;5050860;28;20209;-81
2023/01/23 05:36:35;;;;;;;7.87;5.57;;;0.20;99.90;;;;;;5053182;28;20213;-80
2023/01/23 05:39:01;;;;;;;9.40;5.97;;;0.10;99.90;;;;;;5053517;28;20211;-81
2023/01/23 05:41:26;;;;;;;9.37;6.10;;;0.20;99.90;;;;;;5051881;28;20201;-82
2023/01/23 05:43:52;;;;;;;8.13;5.20;;;0.20;99.90;;;;;;5044720;28;20293;-80
2023/01/23 05:46:17;;;;;;;9.37;6.17;;;0.20;99.90;;;;;;5030014;28;20221;-80
2023/01/23 05:48:43;;;;;;;8.80;6.00;;;0.10;99.90;;;;;;5036448;28;20247;-80
2023/01/23 05:51:08;;;;;;;9.47;5.97;;;0.10;99.90;;;;;;5036516;28;20209;-80
2023/01/23 05:53:34;;;;;;;8.27;5.63;;;0.10;99.90;;;;;;5038958;28;20193;-81
2023/01/23 05:56:04;;;;;;;9.20;6.10;;;0.10;99.90;;;;;;5037293;28;20182;-80
2023/01/23 05:58:30;;;;;;;8.97;6.10;;;0.10;99.90;;;;;;5037169;28;20184;-80
2023/01/23 06:00:56;;;;;;;8.63;5.87;;;0.10;99.90;;;;;;5036829;28;20215;-81
2023/01/23 06:03:21;;;;;;;9.07;6.43;;;0.10;99.90;;;;;;5036789;28;20229;-81
2023/01/23 06:05:47;;;;;;;10.37;6.07;;;0.10;99.90;;;;;;5036891;28;20223;-80
2023/01/23 06:08:12;;;;;;;10.43;6.70;;;0.10;99.90;;;;;;5036986;28;20188;-81
2023/01/23 06:10:38;;;;;;;8.73;6.53;;;0.10;99.90;;;;;;5035581;28;20181;-80
2023/01/23 06:13:04;;;;;;;8.00;5.60;;;0.10;99.90;;;;;;5034684;28;20185;-80
2023/01/23 06:15:29;;;;;;;8.53;6.30;;;0.10;99.90;;;;;;5036015;28;20280;-81
2023/01/23 06:17:55;;;;;;;10.10;6.60;;;0.10;99.90;;;;;;5035148;28;20209;-80
2023/01/23 06:20:21;;;;;;;8.13;5.90;;;0.10;99.90;;;;;;5035313;28;20200;-80
2023/01/23 06:22:46;;;;;;;9.97;6.97;;;0.10;99.90;;;;;;5034756;28;20188;-81
2023/01/23 06:25:12;;;;;;;9.10;5.97;;;0.10;99.90;;;;;;5034108;28;20229;-81
2023/01/23 06:27:37;;;;;;;11.50;7.10;;;0.10;99.90;;;;;;5034544;28;20215;-80
2023/01/23 06:30:03;;;;;;;8.40;6.57;;;0.10;99.90;;;;;;5035954;28;20181;-78
2023/01/23 06:32:29;;;;;;;11.27;7.30;;;0.40;99.90;;;;;;5033777;28;20182;-79
2023/01/23 06:34:54;;;;;;;11.20;6.23;;;0.70;99.90;;;;;;5033432;28;20228;-79
2023/01/23 06:37:20;;;;;;;9.37;6.27;;;1.00;99.90;;;;;;5034665;28;20183;-79
2023/01/23 06:39:45;;;;;;;11.60;6.47;;;1.20;99.90;;;;;;5034092;28;20205;-79
2023/01/23 06:42:11;;;;;;;9.63;6.20;;;1.00;99.90;;;;;;5033326;28;20208;-81
2023/01/23 06:44:37;;;;;;;10.60;6.23;;;1.00;99.90;;;;;;5024150;28;20194;-83
2023/01/23 06:47:03;;;;;;;9.33;6.30;;;0.80;99.90;;;;;;5021377;28;20182;-81
2023/01/23 06:49:29;;;;;;;8.37;5.97;;;0.70;99.90;;;;;;5019213;28;20188;-81
2023/01/23 06:51:54;;;;;;;10.03;6.57;;;0.50;99.90;;;;;;5019559;28;20273;-81
2023/01/23 06:54:20;;;;;;;9.57;6.40;;;0.40;99.90;;;;;;5021193;28;20204;-81
2023/01/23 06:56:46;;;;;;;9.63;6.30;;;0.30;99.90;;;;;;5019739;28;20638;-82
2023/01/23 06:59:11;;;;;;;10.00;6.00;;;0.20;99.90;;;;;;5018499;28;20192;-82
2023/01/23 07:01:37;;;;;;;8.10;5.63;;;0.20;99.90;;;;;;5017560;28;20210;-81
2023/01/23 07:04:02;;;;;;;9.50;6.00;;;0.10;99.90;;;;;;5017722;28;20206;-80
2023/01/23 07:06:30;;;;;;;9.70;6.67;;;0.10;99.90;;;;;;5017919;28;20178;-81
2023/01/23 07:08:55;;;;;;;9.60;6.93;;;0.10;99.90;;;;;;5022223;28;20174;-80
2023/01/23 07:11:21;;;;;;;11.93;8.00;;;0.20;99.90;;;;;;5017929;28;20245;-80
2023/01/23 07:13:46;;;;;;;9.17;6.07;;;0.10;99.90;;;;;;5014461;28;20285;-81
2023/01/23 07:16:12;;;;;;;13.27;10.00;;;0.10;99.90;;;;;;5014237;28;20177;-81
2023/01/23 07:18:38;;;;;;;7.63;5.57;;;0.10;99.90;;;;;;5012877;28;20186;-80
2023/01/23 07:21:05;;;;;;;8.30;5.63;;;0.10;99.90;;;;;;5013226;28;20270;-80
2023/01/23 07:23:31;;;;;;;8.97;5.93;;;0.10;99.90;;;;;;5014599;28;20202;-81
2023/01/23 07:26:02;;;;;;;9.43;6.00;;;0.10;99.90;;;;;;5012996;28;20173;-80
2023/01/23 07:28:28;;;;;;;9.03;7.27;;;0.10;99.90;;;;;;5014626;28;20181;-81
2023/01/23 07:30:54;;;;;;;10.33;6.90;;;0.10;99.90;;;;;;5012405;28;20195;-83
2023/01/23 07:33:19;;;;;;;8.63;5.73;;;0.10;99.90;;;;;;5013691;28;20270;-80
2023/01/23 07:35:45;;;;;;;8.40;5.70;;;0.10;99.90;;;;;;5012751;28;20263;-81
2023/01/23 07:38:10;;;;;;;8.17;5.20;;;0.20;99.90;;;;;;5013828;28;20268;-81
2023/01/23 07:40:37;;;;;;;8.43;5.90;;;0.20;99.90;;;;;;5013747;28;20210;-79
2023/01/23 07:43:04;;;;;;;7.17;5.37;;;0.20;99.90;;;;;;5013773;28;20262;-79
2023/01/23 07:45:29;;;;;;;7.43;5.50;;;0.30;99.90;;;;;;5013749;28;20185;-79
2023/01/23 07:47:55;;;;;;;7.77;5.03;;;0.30;99.90;;;;;;5013212;28;20277;-77
2023/01/23 07:50:21;;;;;;;8.60;5.73;;;0.30;99.90;;;;;;5012428;28;20179;-80
2023/01/23 07:52:46;;;;;;;7.70;5.20;;;0.40;99.90;;;;;;5012911;28;20569;-79
2023/01/23 07:55:12;;;;;;;8.63;5.60;;;0.40;99.90;;;;;;5012618;28;20201;-79
2023/01/23 07:57:37;;;;;;;8.17;5.50;;;0.40;99.90;;;;;;5011607;28;20198;-79
2023/01/23 08:00:04;;;;;;;7.33;5.33;;;0.40;99.90;;;;;;5013873;28;20476;-79
2023/01/23 08:02:30;;;;;;;11.33;8.07;;;0.50;99.90;;;;;;5012377;28;20183;-79
2023/01/23 08:04:55;;;;;;;7.50;4.60;;;0.60;99.90;;;;;;5013567;28;20218;-79
2023/01/23 08:07:21;;;;;;;8.27;5.67;;;0.60;99.90;;;;;;5012631;28;20183;-79
2023/01/23 08:09:46;;;;;;;9.23;5.17;;;0.70;99.90;;;;;;5013051;28;20242;-79
2023/01/23 08:12:12;;;;;;;7.93;5.37;;;0.70;99.90;;;;;;5011963;28;20178;-78
2023/01/23 08:14:39;;;;;;;8.40;4.93;;;0.70;99.90;;;;;;5013298;28;20254;-79
2023/01/23 08:17:05;;;;;;;7.13;4.83;;;0.80;99.90;;;;;;5013464;28;20171;-78
2023/01/23 08:19:30;;;;;;;7.63;4.87;;;0.80;99.90;;;;;;5013215;28;20182;-79
2023/01/23 08:21:56;;;;;;;7.87;5.50;;;0.90;99.90;;;;;;5013148;28;20173;-79
2023/01/23 08:24:21;;;;;;;7.10;4.80;;;0.90;99.90;;;;;;5011704;28;20198;-79
2023/01/23 08:26:47;;;;;;;6.73;4.50;;;0.90;99.90;;;;;;5012155;28;20171;-79
2023/01/23 08:29:13;;;;;;;8.10;4.90;;;0.80;99.90;;;;;;5011840;28;20676;-79
2023/01/23 08:31:39;;;;;;;7.43;5.03;;;0.80;99.90;;;;;;5012094;28;20206;-78
2023/01/23 08:34:05;;;;;;;6.47;4.60;;;0.80;99.90;;;;;;5049682;22;20300;-84
2023/01/23 08:36:31;;;;;;;7.00;5.17;;;0.80;99.90;;;;;;5018410;28;20174;-84
2023/01/23 08:38:56;;;;;;;7.07;4.70;;;0.80;99.90;;;;;;5014337;28;20228;-84
2023/01/23 08:41:22;;;;;;;6.50;4.70;;;0.80;99.90;;;;;;5030617;28;20728;-84
2023/01/23 08:43:49;;;;;;;8.93;5.80;;;0.90;99.90;;;;;;5031863;28;20190;-84
2023/01/23 08:46:14;;;;;;;8.70;5.67;;;0.90;99.90;;;;;;5032140;28;20602;-84
2023/01/23 08:48:40;;;;;;;18.30;12.20;;;0.90;99.90;;;;;;5031141;28;20178;-85
2023/01/23 08:51:12;;;;;;;25.40;15.90;;;1.00;99.90;;;;;;5031784;28;20185;-83
2023/01/23 08:53:38;;;;;;;10.13;7.10;;;1.00;99.90;;;;;;5031964;28;20194;-84
2023/01/23 08:56:13;;;;;;;11.50;8.37;;;1.00;99.90;;;;;;5014308;28;20261;-84
2023/01/23 08:58:39;;;;;;;8.50;5.27;;;1.10;99.90;;;;;;5014223;28;20170;-84
2023/01/23 09:01:04;;;;;;;7.03;5.13;;;1.20;99.90;;;;;;5014247;28;20198;-86
2023/01/23 09:03:30;;;;;;;8.17;5.90;;;1.30;99.90;;;;;;5014120;28;20177;-83
2023/01/23 09:06:00;;;;;;;8.63;6.20;;;1.40;99.90;;;;;;5031959;28;20178;-84
2023/01/23 09:08:26;;;;;;;8.57;5.43;;;1.50;99.90;;;;;;5032625;28;20177;-83
2023/01/23 09:10:51;;;;;;;8.57;5.50;;;1.70;99.90;;;;;;5018056;28;20178;-83
2023/01/23 09:13:18;;;;;;;8.00;5.43;;;1.60;99.90;;;;;;5035800;28;20175;-84
2023/01/23 09:15:44;;;;;;;7.97;5.30;;;1.60;99.90;;;;;;5018008;28;20167;-83
2023/01/23 09:18:10;;;;;;;7.53;5.33;;;1.90;99.90;;;;;;5035582;28;20170;-83
2023/01/23 09:20:37;;;;;;;8.60;5.53;;;1.90;99.90;;;;;;5017656;28;20656;-83
2023/01/23 09:23:03;;;;;;;10.00;6.40;;;1.90;99.90;;;;;;5035516;28;20174;-83
2023/01/23 09:25:30;;;;;;;9.77;5.50;;;1.90;99.90;;;;;;5017420;28;20289;-83
2023/01/23 09:27:55;;;;;;;10.30;6.53;;;2.00;99.90;;;;;;5035235;28;20185;-84
2023/01/23 09:30:21;;;;;;;8.07;5.40;;;2.00;99.90;;;;;;5025298;28;20554;-83
2023/01/23 09:32:47;;;;;;;7.97;5.30;;;1.90;99.90;;;;;;5020626;28;20193;-83
2023/01/23 09:35:12;;;;;;;8.67;5.77;;;1.90;99.90;;;;;;5006165;28;20205;-83
2023/01/23 09:40:23;;;;;;;8.50;5.50;;;2.00;99.90;;;;;;5035306;28;20205;-83
2023/01/23 09:42:50;;;;;;;9.00;5.73;;;2.50;99.90;;;;;;5035152;28;20175;-83
2023/01/23 09:45:20;;;;;;;11.20;7.07;;;2.60;99.90;;;;;;5016395;28;20231;-83
2023/01/23 09:47:58;;;;;;;7.40;5.57;;;2.70;99.90;;;;;;4997706;28;20235;-83
2023/01/23 09:50:31;;;;;;;7.23;5.17;;;3.10;99.90;;;;;;5015051;28;20171;-83
2023/01/23 09:53:14;;;;;;;7.83;5.40;;;3.40;99.90;;;;;;4998111;28;20221;-82
2023/01/23 09:55:47;;;;;;;14.23;9.40;;;3.70;99.90;;;;;;4997569;28;20650;-83
2023/01/23 09:58:42;;;;;;;6.97;4.60;;;3.80;99.90;;;;;;5015308;28;20541;-82
2023/01/23 10:01:12;;;;;;;7.40;5.40;;;4.00;99.90;;;;;;5000545;28;20208;-83
2023/01/23 10:03:39;;;;;;;9.70;5.77;;;4.00;99.90;;;;;;5009384;28;20674;-85
2023/01/23 10:06:26;;;;;;;10.00;7.00;;;4.10;99.90;;;;;;5017047;28;20186;-84
2023/01/23 10:09:07;;;;;;;11.10;7.90;;;4.10;99.90;;;;;;5034849;28;20184;-84
2023/01/23 10:12:11;;;;;;;10.20;6.43;;;4.10;99.90;;;;;;5033143;28;20180;-85
2023/01/23 10:14:39;;;;;;;8.87;6.53;;;4.10;99.90;;;;;;5033276;28;20197;-84
2023/01/23 10:17:21;;;;;;;8.97;6.17;;;4.10;99.90;;;;;;5034412;28;20554;-84
2023/01/23 10:20:01;;;;;;;10.67;7.90;;;4.10;99.90;;;;;;5016004;28;20197;-82
2023/01/23 10:22:35;;;;;;;9.77;6.93;;;3.80;99.90;;;;;;5033318;28;20180;-84
2023/01/23 10:25:20;;;;;;;7.80;5.60;;;3.60;99.90;;;;;;5034335;28;20215;-84
2023/01/23 10:27:48;;;;;;;10.13;7.33;;;3.50;99.90;;;;;;5016685;28;20176;-87
2023/01/23 10:30:32;;;;;;;10.80;7.90;;;3.70;99.90;;;;;;5020392;28;20192;-84
2023/01/23 10:33:12;;;;;;;8.20;5.80;;;3.70;99.90;;;;;;5016418;28;20184;-86
2023/01/23 10:36:02;;;;;;;7.87;4.80;;;3.60;99.90;;;;;;5018373;28;20694;-86
2023/01/23 10:38:46;;;;;;;8.93;5.80;;;3.70;99.90;;;;;;5033044;28;20650;-86
2023/01/23 10:41:21;;;;;;;8.00;5.27;;;3.80;99.90;;;;;;5033918;28;20206;-85
2023/01/23 10:43:49;;;;;;;8.70;5.87;;;4.20;99.90;;;;;;5032697;28;20242;-86
2023/01/23 10:46:18;;;;;;;8.23;5.43;;;4.60;99.90;;;;;;5032650;28;20651;-86
2023/01/23 10:48:50;;;;;;;14.20;11.10;;;4.80;99.90;;;;;;5033877;28;20177;-86
2023/01/23 10:51:36;;;;;;;8.43;5.30;;;4.80;99.90;;;;;;5033760;28;20254;-86
2023/01/23 10:54:07;;;;;;;10.03;6.63;;;4.60;99.90;;;;;;5016032;28;20197;-86
2023/01/23 10:56:37;;;;;;;7.90;5.30;;;4.40;99.90;;;;;;5033732;28;20228;-87
2023/01/23 10:59:04;;;;;;;8.00;5.77;;;4.40;99.90;;;;;;5017511;28;20542;-86
2023/01/23 11:01:35;;;;;;;7.77;5.50;;;4.60;99.90;;;;;;5033473;28;20201;-90
2023/01/23 11:04:18;;;;;;;8.03;5.73;;;4.60;99.90;;;;;;5016006;28;20614;-89
2023/01/23 11:07:12;;;;;;;8.27;5.77;;;5.00;99.90;;;;;;5015751;28;20212;-90
2023/01/23 11:09:57;;;;;;;7.40;5.83;;;5.40;99.90;;;;;;5015708;28;20262;-87
2023/01/23 11:12:25;;;;;;;6.53;4.97;;;5.80;99.90;;;;;;5015784;28;20544;-89
2023/01/23 11:15:10;;;;;;;8.83;5.90;;;5.60;99.90;;;;;;5015879;28;20301;-88
2023/01/23 11:17:36;;;;;;;10.57;6.97;;;5.80;99.90;;;;;;5033551;28;20245;-87
2023/01/23 11:20:23;;;;;;;7.67;5.33;;;5.90;99.90;;;;;;5017397;28;20219;-85
2023/01/23 11:22:58;;;;;;;8.73;5.17;;;6.10;99.90;;;;;;5031917;28;20234;-85
2023/01/23 11:25:45;;;;;;;11.43;8.43;;;6.00;99.90;;;;;;5031818;28;20248;-87
2023/01/23 11:28:45;;;;;;;12.27;8.90;;;5.40;99.90;;;;;;5015458;28;20197;-85
2023/01/23 11:31:25;;;;;;;9.73;6.27;;;5.30;99.90;;;;;;5015298;28;20269;-84
2023/01/23 11:34:10;;;;;;;9.30;5.73;;;6.30;99.90;;;;;;5014693;28;20210;-84
2023/01/23 11:36:44;;;;;;;7.93;4.97;;;7.20;99.90;;;;;;5015089;28;20178;-87
2023/01/23 11:39:15;;;;;;;8.73;6.70;;;6.90;99.90;;;;;;5031642;28;20203;-88
2023/01/23 11:41:43;;;;;;;8.50;6.80;;;7.40;99.90;;;;;;5031523;28;20691;-88
2023/01/23 11:44:20;;;;;;;10.30;9.30;;;8.10;99.90;;;;;;5032591;28;20194;-88
2023/01/23 11:47:11;;;;;;;9.83;8.80;;;7.00;99.90;;;;;;5015139;28;20185;-89
2023/01/23 11:49:51;;;;;;;7.47;6.27;;;6.80;99.90;;;;;;5016581;28;20199;-82
2023/01/23 11:52:29;;;;;;;8.13;6.00;;;6.70;99.90;;;;;;5029722;28;20182;-83
2023/01/23 11:55:16;;;;;;;7.83;5.83;;;6.20;99.90;;;;;;5016824;28;20674;-84
2023/01/23 11:58:13;;;;;;;8.17;5.77;;;5.70;99.90;;;;;;4995215;28;20232;-85
2023/01/23 12:00:47;;;;;;;8.23;6.27;;;5.30;99.90;;;;;;5012715;28;20192;-84
2023/01/23 12:03:27;;;;;;;8.10;6.03;;;5.20;99.90;;;;;;5012946;28;20176;-85
2023/01/23 12:06:11;;;;;;;8.17;5.77;;;4.90;99.90;;;;;;5009461;28;20170;-84
2023/01/23 12:09:22;;;;;;;8.77;6.30;;;4.80;99.90;;;;;;5006860;28;20198;-84
2023/01/23 12:12:29;;;;;;;8.17;5.70;;;4.90;99.90;;;;;;5010614;28;20195;-84
2023/01/23 12:15:28;;;;;;;11.27;8.50;;;4.80;99.90;;;;;;4978084;28;20202;-84
2023/01/23 12:18:15;;;;;;;9.30;6.40;;;4.80;99.90;;;;;;5014658;28;20236;-84
2023/01/23 12:20:45;;;;;;;8.97;6.30;;;4.60;99.90;;;;;;5032182;28;20711;-84
2023/01/23 12:23:31;;;;;;;7.93;5.23;;;4.40;99.90;;;;;;5032332;28;20261;-84
2023/01/23 12:26:11;;;;;;;9.53;5.90;;;4.40;99.90;;;;;;5014334;28;20177;-84
2023/01/23 12:29:02;;;;;;;8.23;5.33;;;4.30;99.90;;;;;;5031713;28;20174;-87
2023/01/23 12:32:01;;;;;;;8.30;5.97;;;4.20;99.90;;;;;;5003955;28;20218;-83
2023/01/23 12:34:29;;;;;;;8.50;6.37;;;4.10;99.90;;;;;;5012530;28;20272;-84
2023/01/23 12:37:12;;;;;;;10.13;6.00;;;4.00;99.90;;;;;;5031660;28;20201;-84
2023/01/23 12:39:54;;;;;;;9.73;5.97;;;3.90;99.90;;;;;;5013448;28;20228;-85
2023/01/23 12:42:49;;;;;;;7.90;5.13;;;4.00;99.90;;;;;;5031970;28;20255;-90
2023/01/23 12:45:21;;;;;;;7.80;5.57;;;3.90;99.90;;;;;;5014347;28;20204;-87
2023/01/23 12:48:14;;;;;;;9.43;6.20;;;4.10;99.90;;;;;;5014523;28;20181;-88
2023/01/23 12:50:55;;;;;;;7.83;5.27;;;4.00;99.90;;;;;;5031700;28;20170;-89
2023/01/23 12:53:25;;;;;;;8.07;5.00;;;4.10;99.90;;;;;;5014115;28;20211;-89
2023/01/23 12:56:14;;;;;;;6.17;4.77;;;4.20;99.90;;;;;;5014343;28;20170;-87
2023/01/23 12:58:52;;;;;;;6.23;5.00;;;4.30;99.90;;;;;;5030628;28;20196;-89
2023/01/23 13:01:26;;;;;;;6.13;4.50;;;4.20;99.90;;;;;;5013749;28;20231;-88
2023/01/23 13:04:18;;;;;;;6.23;4.63;;;4.20;99.90;;;;;;5030349;28;20185;-88
2023/01/23 13:06:56;;;;;;;6.50;4.80;;;4.20;99.90;;;;;;5029562;28;20178;-88
2023/01/23 13:10:18;;;;;;;5.63;4.13;;;4.00;99.90;;;;;;5021845;28;20228;-88
2023/01/23 13:12:44;;;;;;;6.53;3.90;;;4.30;99.90;;;;;;4916293;29;20173;-88
2023/01/23 13:15:15;;;;;;;5.57;4.00;;;4.60;99.90;;;;;;4916518;29;20212;-88
2023/01/23 13:17:49;;;;;;;6.30;5.30;;;4.70;99.90;;;;;;4981905;28;20679;-89
2023/01/23 13:23:36;;;;;;;7.33;5.67;;;5.30;99.90;;;;;;5020027;28;20220;-88